Time;durP1;ratioP1;P1;durP2;ratioP2;P2;SDS_P1;SDS_P2;PMS_P1;PMS_P2;Temp;Humidity;BMP_temperature;BMP_pressure;BME280_temperature;BME280_humidity;BME280_pressure;Samples;Min_cycle;Max_cycle;Signal;HPM_P1;HPM_P2
2023/04/28 00:00:17;;;;;;;15.85;6.45;;;;;;;2.21;70.43;101677.78;5022183;28;20029;-57
2023/04/28 00:02:42;;;;;;;9.73;6.03;;;;;;;2.18;70.60;101667.34;5026173;28;20591;-59
2023/04/28 00:05:08;;;;;;;15.35;7.78;;;;;;;2.14;70.61;101676.00;5020979;28;20021;-55
2023/04/28 00:07:33;;;;;;;11.90;5.57;;;;;;;2.13;71.00;101669.06;5036036;28;20025;-57
2023/04/28 00:09:59;;;;;;;15.32;6.05;;;;;;;2.12;70.60;101662.94;5032018;28;20040;-57
2023/04/28 00:12:24;;;;;;;10.30;5.97;;;;;;;2.10;70.72;101658.59;5025491;28;20068;-57
2023/04/28 00:14:50;;;;;;;15.05;5.88;;;;;;;2.10;71.67;101659.47;5032436;28;20341;-57
2023/04/28 00:17:16;;;;;;;13.05;6.13;;;;;;;2.13;72.12;101658.63;5027554;28;20497;-55
2023/04/28 00:19:51;;;;;;;11.57;6.15;;;;;;;2.22;71.81;101655.16;5033415;28;20049;-56
2023/04/28 00:22:17;;;;;;;11.98;5.68;;;;;;;2.28;71.11;101656.06;5029265;28;20032;-56
2023/04/28 00:24:43;;;;;;;9.00;5.38;;;;;;;2.29;70.37;101651.69;5029796;28;20361;-56
2023/04/28 00:27:09;;;;;;;14.27;5.80;;;;;;;2.33;70.42;101646.50;5024050;28;20051;-56
2023/04/28 00:29:35;;;;;;;12.18;5.35;;;;;;;2.39;69.93;101646.53;5024085;28;20233;-55
2023/04/28 00:32:01;;;;;;;9.45;5.07;;;;;;;2.33;70.21;101645.63;5025768;28;20033;-56
2023/04/28 00:34:26;;;;;;;13.98;5.15;;;;;;;2.34;70.28;101648.25;5022477;28;20032;-56
2023/04/28 00:36:52;;;;;;;10.23;4.68;;;;;;;2.42;69.80;101648.28;5023851;28;20060;-56
2023/04/28 00:39:17;;;;;;;12.65;5.63;;;;;;;2.48;70.01;101650.03;5027155;28;20136;-56
2023/04/28 00:41:43;;;;;;;16.60;6.03;;;;;;;2.43;71.15;101652.63;5020172;28;20042;-57
2023/04/28 00:44:08;;;;;;;8.82;5.47;;;;;;;2.38;70.86;101644.75;5026750;28;20025;-56
2023/04/28 00:46:34;;;;;;;15.07;5.07;;;;;;;2.30;71.17;101643.88;5025449;28;20104;-56
2023/04/28 00:48:59;;;;;;;11.70;5.38;;;;;;;2.23;71.20;101638.66;5021108;28;20037;-56
2023/04/28 00:51:27;;;;;;;8.63;5.60;;;;;;;2.16;71.39;101633.41;5023658;28;20040;-55
2023/04/28 00:53:53;;;;;;;11.20;5.60;;;;;;;2.16;71.63;101632.56;5019001;28;20180;-55
2023/04/28 00:56:18;;;;;;;13.85;6.40;;;;;;;2.17;71.58;101639.50;5017486;28;20132;-55
2023/04/28 00:58:44;;;;;;;7.47;4.78;;;;;;;2.19;71.61;101629.94;5023089;28;20022;-56
2023/04/28 01:01:09;;;;;;;11.00;5.20;;;;;;;2.20;71.03;101621.25;5020313;28;20076;-56
2023/04/28 01:03:37;;;;;;;11.52;5.18;;;;;;;2.22;71.51;101622.13;5023936;28;20556;-55
2023/04/28 01:06:07;;;;;;;15.30;5.07;;;;;;;2.20;71.09;101619.50;5022282;28;20090;-55
2023/04/28 01:08:34;;;;;;;8.32;5.05;;;;;;;2.19;71.18;101616.88;5021116;28;20028;-55
2023/04/28 01:11:00;;;;;;;7.88;4.38;;;;;;;2.15;71.14;101604.72;5020246;28;20457;-55
2023/04/28 01:13:26;;;;;;;9.63;5.03;;;;;;;2.18;71.49;101612.56;5019339;28;20491;-56
2023/04/28 01:15:52;;;;;;;7.05;5.20;;;;;;;2.16;71.35;101615.16;5023222;28;20029;-55
2023/04/28 01:18:18;;;;;;;13.15;5.18;;;;;;;2.16;71.34;101614.28;5020449;28;20038;-55
2023/04/28 01:20:43;;;;;;;12.70;5.40;;;;;;;2.18;71.17;101617.78;5022007;28;20087;-56
2023/04/28 01:23:12;;;;;;;11.18;5.10;;;;;;;2.15;71.50;101605.56;5016920;28;20124;-55
2023/04/28 01:25:38;;;;;;;10.32;5.13;;;;;;;2.17;71.11;101613.41;5019956;28;20022;-55
2023/04/28 01:28:03;;;;;;;17.10;5.70;;;;;;;2.13;71.30;101609.06;5008809;28;20414;-55
2023/04/28 01:30:29;;;;;;;11.88;5.22;;;;;;;2.10;71.23;101609.06;5020830;28;20397;-55
2023/04/28 01:32:55;;;;;;;7.40;5.05;;;;;;;2.11;70.80;101605.56;5016963;28;20022;-56
2023/04/28 01:35:20;;;;;;;14.43;7.07;;;;;;;2.09;70.85;101608.16;5023401;28;20061;-55
2023/04/28 01:37:46;;;;;;;14.98;6.15;;;;;;;2.13;71.08;101603.84;5022685;28;20057;-57
2023/04/28 01:40:11;;;;;;;12.40;6.65;;;;;;;2.13;71.11;101601.25;5022741;28;20025;-55
2023/04/28 01:42:37;;;;;;;9.52;5.50;;;;;;;2.15;71.28;101605.56;5025235;28;20055;-55
2023/04/28 01:45:04;;;;;;;11.75;5.40;;;;;;;2.17;70.95;101593.44;5024770;28;20411;-55
2023/04/28 01:47:29;;;;;;;13.15;5.60;;;;;;;2.18;71.35;101600.38;5020140;28;20100;-55
2023/04/28 01:49:55;;;;;;;8.98;5.65;;;;;;;2.21;71.44;101589.09;5021890;28;20021;-55
2023/04/28 01:52:21;;;;;;;15.02;5.03;;;;;;;2.22;71.35;101589.94;5026056;28;20492;-56
2023/04/28 01:54:47;;;;;;;15.40;5.40;;;;;;;2.24;71.82;101588.22;5019876;28;20080;-56
2023/04/28 01:57:12;;;;;;;8.30;5.10;;;;;;;2.24;72.11;101583.88;5017892;28;20025;-56
2023/04/28 01:59:38;;;;;;;12.10;4.97;;;;;;;2.27;71.82;101583.00;5024388;28;20033;-55
2023/04/28 02:02:03;;;;;;;10.82;5.60;;;;;;;2.29;71.61;101582.16;5026826;28;20409;-56
2023/04/28 02:04:28;;;;;;;10.70;5.78;;;;;;;2.29;71.55;101582.16;5022811;28;20026;-55
2023/04/28 02:06:54;;;;;;;14.48;6.18;;;;;;;2.31;71.25;101580.41;5022241;28;20331;-55
2023/04/28 02:09:19;;;;;;;10.75;5.80;;;;;;;2.31;71.24;101580.41;5018476;28;20029;-56
2023/04/28 02:11:45;;;;;;;10.98;5.88;;;;;;;2.30;71.02;101578.66;5020056;28;20459;-56
2023/04/28 02:14:10;;;;;;;10.02;5.30;;;;;;;2.31;70.97;101572.56;5020245;28;20072;-56
2023/04/28 02:16:35;;;;;;;13.18;6.03;;;;;;;2.32;71.21;101576.94;5020651;28;20664;-57
2023/04/28 02:19:01;;;;;;;14.00;6.30;;;;;;;2.31;70.56;101575.19;5019853;28;20124;-56
2023/04/28 02:21:26;;;;;;;12.45;5.97;;;;;;;2.37;70.71;101575.19;5018206;28;20342;-56
2023/04/28 02:23:52;;;;;;;12.98;7.07;;;;;;;2.37;69.92;101569.97;5016475;28;20022;-56
2023/04/28 02:26:17;;;;;;;15.73;6.95;;;;;;;2.36;70.53;101573.44;5020648;28;20517;-56
2023/04/28 02:28:43;;;;;;;12.90;6.72;;;;;;;2.37;70.21;101567.38;5025772;28;20032;-58
2023/04/28 02:31:10;;;;;;;11.48;7.63;;;;;;;2.39;70.00;101563.03;5027789;28;20026;-57
2023/04/28 02:33:36;;;;;;;12.43;8.10;;;;;;;2.38;69.74;101563.88;5023907;28;20028;-56
2023/04/28 02:36:02;;;;;;;12.45;8.73;;;;;;;2.39;69.86;101563.03;5023593;28;20037;-56
2023/04/28 02:38:28;;;;;;;18.40;8.90;;;;;;;2.43;70.17;101563.03;5019029;28;20040;-56
2023/04/28 02:40:58;;;;;;;17.15;8.18;;;;;;;2.42;70.24;101556.06;5023981;28;20021;-56
2023/04/28 02:43:24;;;;;;;16.25;9.20;;;;;;;2.38;70.13;101555.19;5016636;28;20056;-56
2023/04/28 02:45:49;;;;;;;16.27;10.13;;;;;;;2.39;70.28;101551.72;5018430;28;20057;-56
2023/04/28 02:48:15;;;;;;;12.25;8.88;;;;;;;2.42;70.23;101556.06;5020439;28;20438;-56
2023/04/28 02:50:40;;;;;;;12.35;8.32;;;;;;;2.45;70.65;101556.06;5018113;28;20112;-56
2023/04/28 02:53:06;;;;;;;18.85;9.88;;;;;;;2.37;70.41;101549.09;5019795;28;20390;-56
2023/04/28 02:55:31;;;;;;;17.30;10.10;;;;;;;2.35;70.64;101550.84;5020801;28;20076;-56
2023/04/28 02:57:56;;;;;;;16.70;10.15;;;;;;;2.37;70.38;101549.09;5019804;28;20566;-56
2023/04/28 03:00:22;;;;;;;17.17;10.63;;;;;;;2.37;70.40;101549.09;5019348;28;20025;-56
2023/04/28 03:02:47;;;;;;;14.48;10.38;;;;;;;2.35;70.42;101549.97;5018482;28;20160;-56
2023/04/28 03:05:13;;;;;;;16.08;9.93;;;;;;;2.32;70.78;101543.03;5019720;28;20040;-56
2023/04/28 03:07:38;;;;;;;16.38;10.75;;;;;;;2.34;70.46;101538.66;5016685;28;20038;-56
2023/04/28 03:10:04;;;;;;;24.83;11.63;;;;;;;2.35;70.55;101545.63;5023586;28;20411;-56
2023/04/28 03:12:30;;;;;;;16.10;11.80;;;;;;;2.34;70.17;101543.03;5025946;28;20030;-56
2023/04/28 03:14:55;;;;;;;17.00;12.77;;;;;;;2.35;70.47;101535.19;5012899;28;20041;-56
2023/04/28 03:17:20;;;;;;;14.85;10.98;;;;;;;2.34;70.57;101538.66;5012947;28;20054;-56
2023/04/28 03:19:46;;;;;;;20.80;12.63;;;;;;;2.34;70.37;101541.28;5018752;28;20478;-56
2023/04/28 03:22:11;;;;;;;17.33;12.68;;;;;;;2.32;70.42;101535.19;5025878;28;20045;-56
2023/04/28 03:24:37;;;;;;;16.35;12.27;;;;;;;2.25;70.46;101528.22;5032638;28;20021;-56
2023/04/28 03:27:02;;;;;;;20.40;13.90;;;;;;;2.29;70.47;101534.28;5032522;28;20441;-56
2023/04/28 03:29:28;;;;;;;23.20;14.20;;;;;;;2.33;70.70;101536.06;5019850;28;20048;-56
2023/04/28 03:31:53;;;;;;;20.95;13.82;;;;;;;2.34;70.46;101528.22;5035597;28;20036;-56
2023/04/28 03:34:18;;;;;;;21.15;13.40;;;;;;;2.36;70.91;101534.31;5031418;28;20037;-56
2023/04/28 03:36:44;;;;;;;22.45;12.52;;;;;;;2.33;70.98;101526.47;5028496;28;20148;-57
2023/04/28 03:39:10;;;;;;;21.80;13.32;;;;;;;2.34;71.18;101525.63;5030176;28;20026;-56
2023/04/28 03:41:35;;;;;;;18.20;12.75;;;;;;;2.32;71.03;101524.75;5032102;28;20103;-56
2023/04/28 03:44:01;;;;;;;21.80;12.95;;;;;;;2.31;70.81;101523.00;5032202;28;20091;-56
2023/04/28 03:46:26;;;;;;;27.20;13.55;;;;;;;2.28;70.88;101523.00;5030892;28;20038;-56
2023/04/28 03:48:52;;;;;;;20.65;11.95;;;;;;;2.29;71.04;101518.63;5032572;28;20402;-56
2023/04/28 03:51:17;;;;;;;17.60;11.10;;;;;;;2.28;70.98;101517.78;5035841;28;20551;-56
2023/04/28 03:53:43;;;;;;;17.00;10.73;;;;;;;2.31;71.17;101514.31;5035426;28;20017;-56
2023/04/28 03:56:08;;;;;;;16.70;10.13;;;;;;;2.32;71.55;101509.09;5030089;28;20031;-57
2023/04/28 03:58:34;;;;;;;14.43;10.07;;;;;;;2.34;71.28;101509.97;5034274;28;20414;-56
2023/04/28 04:00:59;;;;;;;16.15;8.63;;;;;;;2.34;71.10;101496.91;5034954;28;20040;-56
2023/04/28 04:03:25;;;;;;;18.75;9.88;;;;;;;2.34;71.32;101501.28;5034188;28;20191;-57
2023/04/28 04:05:52;;;;;;;18.23;9.35;;;;;;;2.31;71.25;101498.66;5042478;28;20026;-57
2023/04/28 04:08:18;;;;;;;14.80;9.52;;;;;;;2.28;71.33;101491.69;5034737;28;20095;-56
2023/04/28 04:10:44;;;;;;;21.58;9.57;;;;;;;2.31;71.38;101491.69;5034452;28;20030;-57
2023/04/28 04:13:09;;;;;;;15.93;8.60;;;;;;;2.33;71.07;101503.00;5029947;28;20037;-56
2023/04/28 04:15:35;;;;;;;11.93;8.00;;;;;;;2.37;71.26;101496.91;5021237;28;20509;-56
2023/04/28 04:18:00;;;;;;;15.15;8.13;;;;;;;2.35;71.18;101487.34;5034921;28;20144;-58
2023/04/28 04:20:26;;;;;;;15.48;8.85;;;;;;;2.31;71.35;101486.47;5016014;28;20270;-57
2023/04/28 04:22:51;;;;;;;10.93;6.80;;;;;;;2.31;71.49;101489.09;5030957;28;20026;-57
2023/04/28 04:25:16;;;;;;;18.27;8.35;;;;;;;2.35;71.33;101498.66;5034423;28;20030;-57
2023/04/28 04:27:42;;;;;;;7.65;5.88;;;;;;;2.30;71.17;101489.94;5035228;28;20112;-57
2023/04/28 04:30:08;;;;;;;16.65;7.10;;;;;;;2.41;71.01;101491.72;5036033;28;20117;-57
2023/04/28 04:32:33;;;;;;;13.48;7.35;;;;;;;2.45;70.70;101488.22;5018050;28;20041;-55
2023/04/28 04:34:58;;;;;;;11.75;7.57;;;;;;;2.41;70.96;101489.97;5014998;28;20091;-57
2023/04/28 04:37:24;;;;;;;10.38;5.22;;;;;;;2.50;70.83;101486.47;5034105;28;20112;-57
2023/04/28 04:39:49;;;;;;;13.13;7.55;;;;;;;2.56;70.64;101486.47;5029416;28;20037;-57
2023/04/28 04:42:14;;;;;;;12.10;6.65;;;;;;;2.66;70.36;101482.97;5029929;28;20104;-55
2023/04/28 04:44:40;;;;;;;15.75;6.20;;;;;;;2.69;70.38;101488.19;5033511;28;20618;-57
2023/04/28 04:47:06;;;;;;;13.13;6.88;;;;;;;2.75;70.49;101482.09;5027624;28;20103;-57
2023/04/28 04:49:31;;;;;;;12.68;5.85;;;;;;;2.92;69.79;101489.91;5033233;28;20029;-57
2023/04/28 04:51:57;;;;;;;16.40;6.57;;;;;;;2.92;69.78;101469.88;5038806;28;20085;-58
2023/04/28 04:54:22;;;;;;;12.57;5.57;;;;;;;2.96;69.81;101470.75;5033390;28;20041;-57
2023/04/28 04:56:47;;;;;;;16.73;6.50;;;;;;;3.08;69.43;101475.91;5021878;28;20030;-58
2023/04/28 04:59:13;;;;;;;17.13;7.35;;;;;;;3.28;68.71;101473.22;5019410;28;20169;-57
2023/04/28 05:01:38;;;;;;;14.80;6.40;;;;;;;3.43;68.28;101471.44;5026804;28;20319;-59
2023/04/28 05:04:04;;;;;;;10.85;6.60;;;;;;;3.52;67.82;101467.94;5027887;28;20383;-57
2023/04/28 05:06:30;;;;;;;17.00;5.93;;;;;;;3.64;67.32;101471.31;5031079;28;20029;-57
2023/04/28 05:08:57;;;;;;;18.40;6.00;;;;;;;3.73;67.01;101462.56;5025855;28;20034;-57
2023/04/28 05:11:22;;;;;;;17.10;6.38;;;;;;;3.88;65.94;101463.38;5026525;28;20049;-57
2023/04/28 05:13:48;;;;;;;13.27;5.53;;;;;;;4.01;65.95;101465.00;5028455;28;20072;-57
2023/04/28 05:16:13;;;;;;;8.85;6.03;;;;;;;4.13;65.60;101464.91;5032261;28;20120;-59
2023/04/28 05:18:39;;;;;;;8.68;5.45;;;;;;;4.27;65.41;101458.69;5016681;28;20434;-57
2023/04/28 05:21:05;;;;;;;14.25;5.53;;;;;;;4.32;65.05;101459.53;5034501;28;20117;-57
2023/04/28 05:23:30;;;;;;;18.35;7.00;;;;;;;4.47;64.03;101453.31;5034915;28;20110;-57
2023/04/28 05:25:56;;;;;;;15.50;6.47;;;;;;;4.53;64.59;101459.34;5023285;28;20096;-57
2023/04/28 05:28:21;;;;;;;14.65;5.78;;;;;;;4.66;63.58;101454.88;5018630;28;20407;-57
2023/04/28 05:30:47;;;;;;;14.10;5.90;;;;;;;4.80;63.06;101454.72;5014834;28;20037;-58
2023/04/28 05:33:12;;;;;;;15.20;6.50;;;;;;;4.90;62.93;101445.84;5020567;28;20034;-57
2023/04/28 05:35:38;;;;;;;11.38;6.28;;;;;;;4.94;62.99;101450.19;5027078;28;20052;-55
2023/04/28 05:38:03;;;;;;;11.15;6.32;;;;;;;5.15;61.87;101443.00;5031595;28;20055;-56
2023/04/28 05:40:29;;;;;;;9.85;5.20;;;;;;;5.23;61.21;101438.53;5034244;28;20120;-57
2023/04/28 05:42:55;;;;;;;11.95;5.63;;;;;;;5.28;61.33;101434.06;5032439;28;20096;-58
2023/04/28 05:45:20;;;;;;;8.60;5.15;;;;;;;5.40;61.13;101434.81;5033216;28;20200;-58
2023/04/28 05:47:46;;;;;;;14.35;6.65;;;;;;;5.45;61.25;101435.59;5032958;28;20029;-57
2023/04/28 05:50:11;;;;;;;11.10;5.95;;;;;;;5.54;60.44;101430.22;5033951;28;20025;-57
2023/04/28 05:52:37;;;;;;;13.85;5.55;;;;;;;5.55;60.37;101431.97;5031297;28;20555;-58
2023/04/28 05:55:03;;;;;;;10.40;5.90;;;;;;;5.62;60.93;101438.88;5033480;28;20433;-58
2023/04/28 05:57:30;;;;;;;14.48;5.13;;;;;;;5.75;59.97;101429.03;5031427;28;20033;-57
2023/04/28 05:59:56;;;;;;;7.68;5.20;;;;;;;5.84;60.51;101422.81;5033409;28;20108;-58
2023/04/28 06:02:21;;;;;;;10.88;4.65;;;;;;;6.04;60.14;101420.75;5034400;28;20033;-56
2023/04/28 06:04:46;;;;;;;16.52;5.78;;;;;;;6.19;59.12;101413.53;5033279;28;20063;-57
2023/04/28 06:07:12;;;;;;;16.75;6.57;;;;;;;6.33;58.34;101408.06;5025034;28;20026;-56
2023/04/28 06:09:37;;;;;;;10.23;5.72;;;;;;;6.43;58.44;101413.09;5033252;28;20026;-58
2023/04/28 06:12:03;;;;;;;14.82;6.22;;;;;;;6.53;58.46;101412.94;5030670;28;20033;-56
2023/04/28 06:14:29;;;;;;;10.70;4.97;;;;;;;6.67;57.08;101410.94;5013935;28;20438;-58
2023/04/28 06:16:54;;;;;;;12.40;6.35;;;;;;;6.84;56.96;101404.50;5033850;28;20057;-56
2023/04/28 06:19:20;;;;;;;9.35;4.85;;;;;;;6.99;56.99;101417.31;5028414;28;20034;-56
2023/04/28 06:21:45;;;;;;;11.07;5.10;;;;;;;7.17;55.99;101405.56;5026388;28;20042;-56
2023/04/28 06:24:11;;;;;;;8.45;5.22;;;;;;;7.27;55.88;101406.22;5029287;28;20335;-58
2023/04/28 06:26:36;;;;;;;11.10;4.90;;;;;;;7.38;54.77;101404.22;5019781;28;20124;-56
2023/04/28 06:29:02;;;;;;;8.93;4.47;;;;;;;7.50;54.76;101396.06;5015507;28;20109;-56
2023/04/28 06:31:27;;;;;;;9.35;4.82;;;;;;;7.62;54.24;101404.59;5032567;28;20029;-58
2023/04/28 06:33:53;;;;;;;15.65;5.38;;;;;;;7.80;53.90;101398.91;5026139;28;20030;-56
2023/04/28 06:36:18;;;;;;;11.85;4.40;;;;;;;7.87;53.23;101392.56;5030172;28;20037;-58
2023/04/28 06:38:44;;;;;;;14.65;5.25;;;;;;;7.99;53.37;101386.13;5022224;28;20026;-58
2023/04/28 06:41:10;;;;;;;9.63;4.82;;;;;;;8.12;52.30;101397.22;5021412;28;20026;-56
2023/04/28 06:43:36;;;;;;;12.32;4.95;;;;;;;8.27;52.70;101390.69;5043233;28;20155;-58
2023/04/28 06:46:01;;;;;;;6.88;4.75;;;;;;;8.25;51.84;101385.50;5031890;28;20064;-57
2023/04/28 06:48:27;;;;;;;9.23;5.25;;;;;;;8.35;51.88;101393.16;5024727;28;20037;-57
2023/04/28 06:50:52;;;;;;;8.25;5.28;;;;;;;8.38;52.06;101393.06;5033044;28;20100;-57
2023/04/28 06:53:17;;;;;;;9.45;4.32;;;;;;;8.54;52.10;101369.84;5025819;28;20040;-57
2023/04/28 06:55:43;;;;;;;18.40;6.05;;;;;;;8.67;52.36;101380.94;5024549;28;20446;-57
2023/04/28 06:58:08;;;;;;;10.73;4.70;;;;;;;8.80;51.07;101374.41;5018660;28;20029;-57
2023/04/28 07:00:34;;;;;;;11.45;5.25;;;;;;;8.84;49.78;101370.75;5030944;28;20401;-57
2023/04/28 07:03:00;;;;;;;7.05;4.00;;;;;;;8.91;50.22;101361.78;5031048;28;20087;-57
2023/04/28 07:05:26;;;;;;;12.75;4.53;;;;;;;9.11;49.95;101363.81;5027075;28;20080;-56
2023/04/28 07:07:52;;;;;;;8.10;4.38;;;;;;;9.21;49.00;101363.56;5020666;28;20037;-58
2023/04/28 07:10:17;;;;;;;7.78;4.53;;;;;;;9.34;49.37;101354.34;5013967;28;20526;-55
2023/04/28 07:12:43;;;;;;;9.15;4.32;;;;;;;9.47;48.57;101354.84;5020566;28;20033;-58
2023/04/28 07:15:09;;;;;;;8.80;4.28;;;;;;;9.47;48.82;101350.41;5026269;28;20061;-56
2023/04/28 07:17:34;;;;;;;16.23;4.97;;;;;;;9.62;48.86;101338.50;5023603;28;20064;-55
2023/04/28 07:20:00;;;;;;;24.65;5.53;;;;;;;9.66;48.78;101340.13;5022726;28;20365;-57
2023/04/28 07:22:25;;;;;;;9.20;4.72;;;;;;;9.79;47.68;101345.00;5027727;28;20033;-58
2023/04/28 07:24:51;;;;;;;13.65;4.82;;;;;;;9.87;48.07;101340.34;5025776;28;20029;-58
2023/04/28 07:27:17;;;;;;;6.68;4.75;;;;;;;9.91;47.06;101332.25;5036981;28;20064;-58
2023/04/28 07:29:42;;;;;;;9.00;5.28;;;;;;;9.99;47.63;101337.28;5036028;28;20059;-58
2023/04/28 07:32:09;;;;;;;19.05;6.95;;;;;;;10.08;46.85;101321.13;5028087;28;20038;-57
2023/04/28 07:34:35;;;;;;;9.50;4.53;;;;;;;10.33;46.34;101325.59;5030580;28;20109;-57
2023/04/28 07:37:01;;;;;;;8.35;4.60;;;;;;;10.54;45.89;101323.09;5026847;28;20029;-57
2023/04/28 07:39:27;;;;;;;11.30;4.55;;;;;;;10.82;45.70;101329.09;5025872;28;20357;-58
2023/04/28 07:41:52;;;;;;;10.45;5.25;;;;;;;11.04;44.90;101327.41;5026052;28;20029;-57
2023/04/28 07:44:18;;;;;;;13.65;4.53;;;;;;;11.22;44.26;101320.56;5016673;28;20076;-57
2023/04/28 07:46:43;;;;;;;11.10;4.78;;;;;;;11.30;43.52;101324.59;5023218;28;20536;-57
2023/04/28 07:49:09;;;;;;;14.73;4.80;;;;;;;11.35;43.73;101322.63;5027183;28;20029;-57
2023/04/28 07:51:34;;;;;;;13.20;5.15;;;;;;;11.33;42.36;101323.63;5031812;28;20464;-57
2023/04/28 07:54:00;;;;;;;9.63;4.60;;;;;;;11.42;43.26;101317.97;5032384;28;20090;-58
2023/04/28 07:56:25;;;;;;;8.13;4.93;;;;;;;11.34;43.09;101320.03;5015022;28;20680;-58
2023/04/28 07:58:51;;;;;;;12.73;5.65;;;;;;;11.37;42.48;101314.63;5032312;28;20021;-59
2023/04/28 08:01:17;;;;;;;10.68;4.68;;;;;;;11.70;42.28;101312.41;5029349;28;20021;-58
2023/04/28 08:03:42;;;;;;;14.50;4.55;;;;;;;11.55;41.71;101308.59;5035404;28;20021;-56
2023/04/28 08:06:08;;;;;;;9.38;4.70;;;;;;;11.89;42.02;101315.13;5013978;28;20025;-57
2023/04/28 08:08:34;;;;;;;10.35;4.90;;;;;;;12.17;41.81;101311.34;5038857;28;20032;-57
2023/04/28 08:11:00;;;;;;;12.40;4.53;;;;;;;12.16;41.44;101301.66;5033504;28;20037;-56
2023/04/28 08:13:26;;;;;;;9.48;4.38;;;;;;;12.41;40.97;101312.06;5035287;28;20079;-57
2023/04/28 08:15:52;;;;;;;10.43;4.50;;;;;;;12.36;40.71;101305.22;5034380;28;20083;-57
2023/04/28 08:18:18;;;;;;;12.23;4.10;;;;;;;12.57;40.41;101299.00;5025066;28;20061;-56
2023/04/28 08:20:43;;;;;;;8.85;4.85;;;;;;;12.46;40.41;101290.66;5033803;28;20029;-57
2023/04/28 08:23:08;;;;;;;9.27;3.50;;;;;;;12.65;40.98;101286.22;5034621;28;20041;-56
2023/04/28 08:25:34;;;;;;;9.82;4.70;;;;;;;12.66;40.40;101287.94;5031917;28;20108;-55
2023/04/28 08:27:59;;;;;;;8.45;4.10;;;;;;;12.80;40.01;101284.66;5030119;28;20037;-57
2023/04/28 08:30:25;;;;;;;18.40;4.30;;;;;;;13.00;40.29;101281.06;5036593;28;20037;-56
2023/04/28 08:32:51;;;;;;;10.68;5.22;;;;;;;13.14;39.45;101276.88;5017958;28;20041;-57
2023/04/28 08:35:16;;;;;;;6.90;4.45;;;;;;;13.00;39.67;101275.75;5030363;28;20102;-57
2023/04/28 08:37:42;;;;;;;9.88;3.92;;;;;;;13.01;39.75;101282.81;5035111;28;20033;-57
2023/04/28 08:40:11;;;;;;;8.05;3.78;;;;;;;13.02;39.58;101273.88;5026249;28;20333;-57
2023/04/28 08:42:36;;;;;;;15.48;4.57;;;;;;;13.16;39.50;101265.28;5032590;28;20511;-57
2023/04/28 08:45:04;;;;;;;8.23;3.88;;;;;;;13.10;39.02;101265.56;5032619;28;20068;-56
2023/04/28 08:47:40;;;;;;;13.68;4.50;;;;;;;13.24;38.90;101267.56;5033595;28;20029;-57
2023/04/28 08:50:09;;;;;;;7.43;4.07;;;;;;;13.48;39.12;101269.97;5040938;28;20033;-56
2023/04/28 08:52:35;;;;;;;11.20;3.90;;;;;;;13.52;38.64;101255.63;5024128;28;20045;-56
2023/04/28 08:55:05;;;;;;;9.80;4.70;;;;;;;13.49;39.01;101255.78;5024391;28;20099;-57
2023/04/28 08:57:37;;;;;;;12.05;4.10;;;;;;;13.47;38.90;101253.19;5031683;28;20528;-56
2023/04/28 09:00:04;;;;;;;9.07;4.20;;;;;;;13.67;38.40;101252.19;5033342;28;20064;-56
2023/04/28 09:02:29;;;;;;;11.15;5.10;;;;;;;13.66;38.20;101242.47;5033120;28;20033;-56
2023/04/28 09:04:55;;;;;;;9.35;3.90;;;;;;;13.75;37.76;101239.38;5034518;28;20536;-57
2023/04/28 09:07:21;;;;;;;8.80;3.83;;;;;;;13.99;37.82;101244.34;5033565;28;20033;-57
2023/04/28 09:09:46;;;;;;;14.90;4.68;;;;;;;13.89;37.58;101243.09;5022369;28;20099;-57
2023/04/28 09:12:12;;;;;;;9.45;4.50;;;;;;;13.99;37.37;101241.69;5010949;28;20056;-55
2023/04/28 09:14:38;;;;;;;10.20;5.45;;;;;;;14.09;37.36;101237.63;5030512;28;20030;-55
2023/04/28 09:17:15;;;;;;;12.52;4.10;;;;;;;13.93;37.50;101234.06;5033358;28;20049;-54
2023/04/28 09:19:43;;;;;;;9.80;4.55;;;;;;;14.18;37.28;101227.44;5032133;28;20025;-57
2023/04/28 09:22:09;;;;;;;11.50;4.53;;;;;;;13.94;37.23;101230.44;5035617;28;20033;-57
2023/04/28 09:24:39;;;;;;;15.98;5.45;;;;;;;14.18;37.23;101232.75;5034215;28;20040;-56
2023/04/28 09:27:06;;;;;;;10.27;4.25;;;;;;;13.96;37.16;101228.59;5033310;28;20071;-56
2023/04/28 09:29:32;;;;;;;11.13;5.40;;;;;;;14.12;37.12;101224.19;5015552;28;20029;-57
2023/04/28 09:32:22;;;;;;;8.23;4.45;;;;;;;14.41;36.34;101229.72;5030698;28;20033;-57
2023/04/28 09:34:52;;;;;;;9.82;4.40;;;;;;;14.29;36.41;101230.38;5033001;28;20053;-56
2023/04/28 09:37:19;;;;;;;11.07;3.97;;;;;;;14.36;37.05;101226.44;5031519;28;20033;-56
2023/04/28 09:39:46;;;;;;;11.25;4.70;;;;;;;14.43;37.21;101217.19;5029286;28;20052;-57
2023/04/28 09:42:34;;;;;;;13.43;4.55;;;;;;;14.57;37.11;101218.25;5031024;28;20025;-57
2023/04/28 09:45:01;;;;;;;9.07;4.88;;;;;;;14.76;36.38;101208.34;5033854;28;20129;-55
2023/04/28 09:47:27;;;;;;;14.30;5.40;;;;;;;14.73;36.62;101205.84;5032567;28;20033;-57
2023/04/28 09:49:57;;;;;;;10.88;3.95;;;;;;;15.02;36.40;101203.31;5031283;28;20123;-57
2023/04/28 09:52:23;;;;;;;16.88;5.22;;;;;;;15.00;35.54;101205.22;5031654;28;20079;-56
2023/04/28 09:54:56;;;;;;;7.55;3.92;;;;;;;15.19;36.37;101200.56;5032390;28;20741;-56
2023/04/28 09:57:22;;;;;;;10.80;4.10;;;;;;;15.47;35.26;101193.63;5025993;28;20037;-56
2023/04/28 09:59:49;;;;;;;8.88;4.63;;;;;;;15.45;35.08;101195.53;5047049;28;20029;-57
2023/04/28 10:02:16;;;;;;;11.35;4.70;;;;;;;15.74;34.57;101185.78;5031940;28;20601;-57
2023/04/28 10:04:45;;;;;;;6.75;4.20;;;;;;;15.62;34.73;101191.84;5031259;28;20193;-57
2023/04/28 10:07:15;;;;;;;10.25;3.92;;;;;;;15.24;35.22;101187.84;5031132;28;20025;-57
2023/04/28 10:09:46;;;;;;;14.90;4.40;;;;;;;15.50;35.45;101188.09;5032520;28;20477;-56
2023/04/28 10:12:22;;;;;;;14.13;5.95;;;;;;;15.69;34.62;101187.00;5029528;28;20116;-57
2023/04/28 10:14:49;;;;;;;10.90;5.53;;;;;;;15.82;33.35;101182.66;5021361;28;20029;-57
2023/04/28 10:17:16;;;;;;;16.13;4.50;;;;;;;15.83;34.36;101173.72;5033105;28;20243;-57
2023/04/28 10:19:43;;;;;;;17.85;5.15;;;;;;;16.04;34.02;101176.03;5030373;28;20033;-54
2023/04/28 10:22:15;;;;;;;14.57;4.70;;;;;;;15.93;34.20;101174.88;5029116;28;20154;-56
2023/04/28 10:25:00;;;;;;;10.98;4.72;;;;;;;16.12;33.74;101168.41;5013776;28;20349;-58
2023/04/28 10:27:30;;;;;;;11.38;4.90;;;;;;;16.43;32.60;101166.47;5026405;28;20496;-55
2023/04/28 10:30:12;;;;;;;11.13;5.57;;;;;;;16.58;32.69;101165.50;5039819;28;20033;-54
2023/04/28 10:32:39;;;;;;;16.02;5.05;;;;;;;16.79;32.27;101167.75;5027107;28;20108;-56
2023/04/28 10:35:20;;;;;;;12.55;5.03;;;;;;;17.28;32.38;101155.63;5025405;28;20130;-57
2023/04/28 10:38:07;;;;;;;9.25;4.32;;;;;;;17.32;31.67;101149.97;5031999;28;20083;-55
2023/04/28 10:40:37;;;;;;;7.10;4.43;;;;;;;17.40;31.13;101150.31;5031015;28;20060;-56
2023/04/28 10:43:04;;;;;;;10.73;4.57;;;;;;;17.33;31.63;101138.34;5029911;28;20132;-55
2023/04/28 10:45:48;;;;;;;12.32;4.40;;;;;;;17.35;31.43;101133.75;5029643;28;20072;-55
2023/04/28 10:48:14;;;;;;;10.70;4.57;;;;;;;17.27;31.68;101144.09;5027679;28;20029;-57
2023/04/28 10:51:11;;;;;;;12.82;4.38;;;;;;;17.55;31.57;101140.38;5025753;28;20335;-55
2023/04/28 10:53:43;;;;;;;16.15;4.72;;;;;;;17.27;31.60;101133.41;5023238;28;20116;-58
2023/04/28 10:56:10;;;;;;;11.00;4.57;;;;;;;17.41;31.53;101138.69;5032864;28;20045;-56
2023/04/28 10:58:40;;;;;;;12.27;4.35;;;;;;;17.61;31.30;101131.94;5033258;28;20053;-56
2023/04/28 11:01:21;;;;;;;8.63;4.43;;;;;;;17.57;30.81;101127.78;5033333;28;20113;-55
2023/04/28 11:03:46;;;;;;;13.57;4.60;;;;;;;17.69;31.33;101130.59;5035045;28;20025;-56
2023/04/28 11:06:25;;;;;;;11.00;4.10;;;;;;;17.54;31.57;101129.81;5035760;28;20311;-55
2023/04/28 11:09:01;;;;;;;9.80;4.55;;;;;;;17.50;31.45;101131.00;5033339;28;20021;-55
2023/04/28 11:11:31;;;;;;;10.32;5.18;;;;;;;17.00;31.98;101128.97;5024108;28;20029;-55
2023/04/28 11:14:18;;;;;;;11.13;4.65;;;;;;;16.91;32.00;101134.91;5030690;28;20022;-57
2023/04/28 11:17:00;;;;;;;14.27;5.05;;;;;;;17.28;31.37;101129.78;5032328;28;20124;-57
2023/04/28 11:19:28;;;;;;;12.25;4.47;;;;;;;17.69;30.97;101120.72;5035512;28;20028;-57
2023/04/28 11:21:55;;;;;;;10.85;4.32;;;;;;;18.05;30.59;101121.81;5033712;28;20100;-58